sensor_id;sensor_type;location;lat;lon;timestamp;P1;durP1;ratioP1;P2;durP2;ratioP2
62102;SDS011;48077;48.104;11.702;2023-06-14T00:00:28;38.05;;;34.92;;
62102;SDS011;48077;48.104;11.702;2023-06-14T00:07:41;57.42;;;52.53;;
62102;SDS011;48077;48.104;11.702;2023-06-14T00:10:11;52.65;;;48.10;;
62102;SDS011;48077;48.104;11.702;2023-06-14T00:12:34;49.22;;;45.08;;
62102;SDS011;48077;48.104;11.702;2023-06-14T00:15:01;53.15;;;48.50;;
62102;SDS011;48077;48.104;11.702;2023-06-14T00:17:24;47.83;;;43.92;;
62102;SDS011;48077;48.104;11.702;2023-06-14T00:19:53;51.05;;;46.80;;
62102;SDS011;48077;48.104;11.702;2023-06-14T00:22:17;51.75;;;47.47;;
62102;SDS011;48077;48.104;11.702;2023-06-14T00:24:40;51.50;;;46.88;;
62102;SDS011;48077;48.104;11.702;2023-06-14T00:27:03;53.28;;;48.50;;
62102;SDS011;48077;48.104;11.702;2023-06-14T00:29:27;53.65;;;49.20;;
62102;SDS011;48077;48.104;11.702;2023-06-14T00:31:50;55.22;;;50.53;;
62102;SDS011;48077;48.104;11.702;2023-06-14T00:34:14;55.00;;;50.10;;
62102;SDS011;48077;48.104;11.702;2023-06-14T00:36:38;55.13;;;50.35;;
62102;SDS011;48077;48.104;11.702;2023-06-14T00:39:01;57.75;;;52.78;;
62102;SDS011;48077;48.104;11.702;2023-06-14T00:41:24;56.65;;;51.40;;
62102;SDS011;48077;48.104;11.702;2023-06-14T00:43:48;56.53;;;51.65;;
62102;SDS011;48077;48.104;11.702;2023-06-14T00:46:11;60.60;;;55.22;;
62102;SDS011;48077;48.104;11.702;2023-06-14T00:48:35;56.88;;;51.95;;
62102;SDS011;48077;48.104;11.702;2023-06-14T00:51:00;57.90;;;52.80;;
62102;SDS011;48077;48.104;11.702;2023-06-14T00:53:26;62.88;;;57.47;;
62102;SDS011;48077;48.104;11.702;2023-06-14T00:55:50;55.33;;;50.78;;
62102;SDS011;48077;48.104;11.702;2023-06-14T00:58:14;61.30;;;56.05;;
62102;SDS011;48077;48.104;11.702;2023-06-14T01:00:38;61.60;;;56.28;;
62102;SDS011;48077;48.104;11.702;2023-06-14T01:03:01;62.50;;;57.15;;
62102;SDS011;48077;48.104;11.702;2023-06-14T01:05:25;63.97;;;58.47;;
62102;SDS011;48077;48.104;11.702;2023-06-14T01:10:52;76.70;;;69.45;;
62102;SDS011;48077;48.104;11.702;2023-06-14T01:15:59;70.47;;;64.20;;
62102;SDS011;48077;48.104;11.702;2023-06-14T01:18:23;69.15;;;63.08;;
62102;SDS011;48077;48.104;11.702;2023-06-14T01:20:47;69.82;;;63.80;;
62102;SDS011;48077;48.104;11.702;2023-06-14T01:23:13;72.13;;;65.60;;
62102;SDS011;48077;48.104;11.702;2023-06-14T01:25:36;70.07;;;63.83;;
62102;SDS011;48077;48.104;11.702;2023-06-14T01:28:03;69.68;;;63.33;;
62102;SDS011;48077;48.104;11.702;2023-06-14T01:30:33;75.57;;;68.78;;
62102;SDS011;48077;48.104;11.702;2023-06-14T01:32:57;75.13;;;68.22;;
62102;SDS011;48077;48.104;11.702;2023-06-14T01:35:23;73.72;;;67.07;;
62102;SDS011;48077;48.104;11.702;2023-06-14T01:37:48;70.30;;;64.25;;
62102;SDS011;48077;48.104;11.702;2023-06-14T01:40:11;76.05;;;69.03;;
62102;SDS011;48077;48.104;11.702;2023-06-14T01:42:37;72.72;;;66.22;;
62102;SDS011;48077;48.104;11.702;2023-06-14T01:45:02;76.50;;;69.43;;
62102;SDS011;48077;48.104;11.702;2023-06-14T01:47:29;77.43;;;70.32;;
62102;SDS011;48077;48.104;11.702;2023-06-14T01:49:54;78.15;;;71.07;;
62102;SDS011;48077;48.104;11.702;2023-06-14T01:52:17;78.97;;;71.75;;
62102;SDS011;48077;48.104;11.702;2023-06-14T01:54:42;77.63;;;70.40;;
62102;SDS011;48077;48.104;11.702;2023-06-14T01:57:06;81.63;;;74.05;;
62102;SDS011;48077;48.104;11.702;2023-06-14T01:59:30;79.35;;;72.10;;
62102;SDS011;48077;48.104;11.702;2023-06-14T02:01:54;79.15;;;71.95;;
62102;SDS011;48077;48.104;11.702;2023-06-14T02:04:17;78.30;;;71.03;;
62102;SDS011;48077;48.104;11.702;2023-06-14T02:06:41;78.32;;;71.10;;
62102;SDS011;48077;48.104;11.702;2023-06-14T02:09:04;82.35;;;74.45;;
62102;SDS011;48077;48.104;11.702;2023-06-14T02:11:27;82.85;;;75.10;;
62102;SDS011;48077;48.104;11.702;2023-06-14T02:13:51;81.45;;;73.78;;
62102;SDS011;48077;48.104;11.702;2023-06-14T02:16:14;86.40;;;78.22;;
62102;SDS011;48077;48.104;11.702;2023-06-14T02:18:40;81.55;;;73.88;;
62102;SDS011;48077;48.104;11.702;2023-06-14T02:21:03;85.95;;;78.00;;
62102;SDS011;48077;48.104;11.702;2023-06-14T02:23:27;84.78;;;76.95;;
62102;SDS011;48077;48.104;11.702;2023-06-14T02:25:50;84.10;;;76.40;;
62102;SDS011;48077;48.104;11.702;2023-06-14T02:28:13;88.13;;;79.82;;
62102;SDS011;48077;48.104;11.702;2023-06-14T02:30:37;88.28;;;79.93;;
62102;SDS011;48077;48.104;11.702;2023-06-14T02:33:00;89.30;;;80.68;;
62102;SDS011;48077;48.104;11.702;2023-06-14T02:35:23;87.47;;;79.32;;
62102;SDS011;48077;48.104;11.702;2023-06-14T02:37:50;92.07;;;83.22;;
62102;SDS011;48077;48.104;11.702;2023-06-14T02:40:14;88.38;;;80.07;;
62102;SDS011;48077;48.104;11.702;2023-06-14T02:42:37;88.15;;;79.68;;
62102;SDS011;48077;48.104;11.702;2023-06-14T02:45:00;87.28;;;79.13;;
62102;SDS011;48077;48.104;11.702;2023-06-14T02:47:25;88.40;;;80.22;;
62102;SDS011;48077;48.104;11.702;2023-06-14T02:49:48;91.40;;;82.30;;
62102;SDS011;48077;48.104;11.702;2023-06-14T02:52:12;89.85;;;81.25;;
62102;SDS011;48077;48.104;11.702;2023-06-14T02:54:35;89.78;;;81.32;;
62102;SDS011;48077;48.104;11.702;2023-06-14T02:56:59;89.53;;;81.05;;
62102;SDS011;48077;48.104;11.702;2023-06-14T02:59:24;90.03;;;81.68;;
62102;SDS011;48077;48.104;11.702;2023-06-14T03:01:48;89.35;;;80.90;;
62102;SDS011;48077;48.104;11.702;2023-06-14T03:04:11;88.35;;;80.05;;
62102;SDS011;48077;48.104;11.702;2023-06-14T03:06:35;89.32;;;81.03;;
62102;SDS011;48077;48.104;11.702;2023-06-14T03:08:59;92.53;;;83.65;;
62102;SDS011;48077;48.104;11.702;2023-06-14T03:11:27;89.13;;;80.78;;
62102;SDS011;48077;48.104;11.702;2023-06-14T03:13:51;92.40;;;83.90;;
62102;SDS011;48077;48.104;11.702;2023-06-14T03:16:15;89.53;;;81.00;;
62102;SDS011;48077;48.104;11.702;2023-06-14T03:18:40;89.00;;;80.82;;
62102;SDS011;48077;48.104;11.702;2023-06-14T03:21:03;88.93;;;79.70;;
62102;SDS011;48077;48.104;11.702;2023-06-14T03:23:27;86.53;;;78.80;;
62102;SDS011;48077;48.104;11.702;2023-06-14T03:25:51;88.47;;;80.07;;
62102;SDS011;48077;48.104;11.702;2023-06-14T03:28:14;89.30;;;80.57;;
62102;SDS011;48077;48.104;11.702;2023-06-14T03:30:37;84.90;;;76.97;;
62102;SDS011;48077;48.104;11.702;2023-06-14T03:33:01;90.03;;;81.07;;
62102;SDS011;48077;48.104;11.702;2023-06-14T03:35:28;89.82;;;81.63;;
62102;SDS011;48077;48.104;11.702;2023-06-14T03:37:52;86.40;;;78.35;;
62102;SDS011;48077;48.104;11.702;2023-06-14T03:40:16;85.78;;;77.57;;
62102;SDS011;48077;48.104;11.702;2023-06-14T03:42:41;84.85;;;76.88;;
62102;SDS011;48077;48.104;11.702;2023-06-14T03:45:07;87.68;;;79.40;;
62102;SDS011;48077;48.104;11.702;2023-06-14T03:47:31;84.70;;;76.80;;
62102;SDS011;48077;48.104;11.702;2023-06-14T03:49:54;87.97;;;79.75;;
62102;SDS011;48077;48.104;11.702;2023-06-14T03:52:18;87.20;;;79.35;;
62102;SDS011;48077;48.104;11.702;2023-06-14T03:54:41;87.63;;;79.18;;
62102;SDS011;48077;48.104;11.702;2023-06-14T03:57:07;88.80;;;80.07;;
62102;SDS011;48077;48.104;11.702;2023-06-14T03:59:33;85.15;;;77.38;;
62102;SDS011;48077;48.104;11.702;2023-06-14T04:01:56;88.85;;;80.53;;
62102;SDS011;48077;48.104;11.702;2023-06-14T04:04:20;85.53;;;77.65;;
62102;SDS011;48077;48.104;11.702;2023-06-14T04:06:44;83.72;;;76.05;;
62102;SDS011;48077;48.104;11.702;2023-06-14T04:09:11;86.38;;;77.97;;
62102;SDS011;48077;48.104;11.702;2023-06-14T04:11:34;81.90;;;74.55;;
62102;SDS011;48077;48.104;11.702;2023-06-14T04:13:57;83.10;;;75.68;;
62102;SDS011;48077;48.104;11.702;2023-06-14T04:16:21;83.57;;;75.97;;
62102;SDS011;48077;48.104;11.702;2023-06-14T04:18:45;80.68;;;73.63;;
62102;SDS011;48077;48.104;11.702;2023-06-14T04:21:09;82.25;;;74.57;;
62102;SDS011;48077;48.104;11.702;2023-06-14T04:23:33;76.53;;;69.85;;
62102;SDS011;48077;48.104;11.702;2023-06-14T04:25:56;77.03;;;70.30;;
62102;SDS011;48077;48.104;11.702;2023-06-14T04:28:24;75.20;;;68.60;;
62102;SDS011;48077;48.104;11.702;2023-06-14T04:30:49;75.75;;;69.00;;
62102;SDS011;48077;48.104;11.702;2023-06-14T04:33:13;75.78;;;68.65;;
62102;SDS011;48077;48.104;11.702;2023-06-14T04:35:36;75.80;;;68.80;;
62102;SDS011;48077;48.104;11.702;2023-06-14T04:38:00;76.05;;;69.03;;
62102;SDS011;48077;48.104;11.702;2023-06-14T04:40:24;71.28;;;65.13;;
62102;SDS011;48077;48.104;11.702;2023-06-14T04:42:48;69.53;;;63.60;;
62102;SDS011;48077;48.104;11.702;2023-06-14T04:45:11;70.80;;;64.57;;
62102;SDS011;48077;48.104;11.702;2023-06-14T04:47:36;67.18;;;60.97;;
62102;SDS011;48077;48.104;11.702;2023-06-14T04:50:00;65.80;;;60.15;;
62102;SDS011;48077;48.104;11.702;2023-06-14T04:52:25;66.68;;;60.63;;
62102;SDS011;48077;48.104;11.702;2023-06-14T04:54:49;62.60;;;57.17;;
62102;SDS011;48077;48.104;11.702;2023-06-14T04:57:15;56.28;;;51.67;;
62102;SDS011;48077;48.104;11.702;2023-06-14T04:59:40;56.65;;;51.85;;
62102;SDS011;48077;48.104;11.702;2023-06-14T05:02:03;58.10;;;52.75;;
62102;SDS011;48077;48.104;11.702;2023-06-14T05:04:28;54.10;;;49.30;;
62102;SDS011;48077;48.104;11.702;2023-06-14T05:06:52;48.38;;;44.17;;
62102;SDS011;48077;48.104;11.702;2023-06-14T05:09:17;48.65;;;44.38;;
62102;SDS011;48077;48.104;11.702;2023-06-14T05:11:41;45.90;;;41.92;;
62102;SDS011;48077;48.104;11.702;2023-06-14T05:14:06;43.72;;;39.60;;
62102;SDS011;48077;48.104;11.702;2023-06-14T05:16:30;41.72;;;38.13;;
62102;SDS011;48077;48.104;11.702;2023-06-14T05:18:53;36.10;;;33.00;;
62102;SDS011;48077;48.104;11.702;2023-06-14T05:21:18;34.05;;;31.25;;
62102;SDS011;48077;48.104;11.702;2023-06-14T05:23:41;32.08;;;29.33;;
62102;SDS011;48077;48.104;11.702;2023-06-14T05:26:08;32.03;;;29.10;;
62102;SDS011;48077;48.104;11.702;2023-06-14T05:28:31;29.80;;;27.27;;
62102;SDS011;48077;48.104;11.702;2023-06-14T05:30:54;28.55;;;26.13;;
62102;SDS011;48077;48.104;11.702;2023-06-14T05:33:18;24.23;;;22.20;;
62102;SDS011;48077;48.104;11.702;2023-06-14T05:35:41;22.30;;;20.15;;
62102;SDS011;48077;48.104;11.702;2023-06-14T05:38:05;23.55;;;21.38;;
62102;SDS011;48077;48.104;11.702;2023-06-14T05:40:30;23.30;;;21.27;;
62102;SDS011;48077;48.104;11.702;2023-06-14T05:42:53;17.92;;;16.20;;
62102;SDS011;48077;48.104;11.702;2023-06-14T05:45:17;20.77;;;18.83;;
62102;SDS011;48077;48.104;11.702;2023-06-14T05:47:40;15.65;;;14.25;;
62102;SDS011;48077;48.104;11.702;2023-06-14T05:50:04;15.07;;;13.50;;
62102;SDS011;48077;48.104;11.702;2023-06-14T05:52:28;13.63;;;12.40;;
62102;SDS011;48077;48.104;11.702;2023-06-14T05:54:52;14.55;;;12.50;;
62102;SDS011;48077;48.104;11.702;2023-06-14T05:57:19;13.70;;;12.25;;
62102;SDS011;48077;48.104;11.702;2023-06-14T05:59:43;12.93;;;9.57;;
62102;SDS011;48077;48.104;11.702;2023-06-14T06:02:06;12.65;;;9.88;;
62102;SDS011;48077;48.104;11.702;2023-06-14T06:04:29;11.40;;;10.02;;
62102;SDS011;48077;48.104;11.702;2023-06-14T06:06:53;10.68;;;8.88;;
62102;SDS011;48077;48.104;11.702;2023-06-14T06:09:17;19.05;;;9.85;;
62102;SDS011;48077;48.104;11.702;2023-06-14T06:11:42;9.13;;;8.00;;
62102;SDS011;48077;48.104;11.702;2023-06-14T06:14:05;11.90;;;9.13;;
62102;SDS011;48077;48.104;11.702;2023-06-14T06:16:28;9.43;;;7.32;;
62102;SDS011;48077;48.104;11.702;2023-06-14T06:18:52;8.70;;;7.82;;
62102;SDS011;48077;48.104;11.702;2023-06-14T06:21:15;9.27;;;8.32;;
62102;SDS011;48077;48.104;11.702;2023-06-14T06:23:38;7.80;;;6.07;;
62102;SDS011;48077;48.104;11.702;2023-06-14T06:26:02;13.30;;;7.07;;
62102;SDS011;48077;48.104;11.702;2023-06-14T06:28:26;8.85;;;7.40;;
62102;SDS011;48077;48.104;11.702;2023-06-14T06:30:49;5.90;;;5.30;;
62102;SDS011;48077;48.104;11.702;2023-06-14T06:33:13;11.38;;;5.70;;
62102;SDS011;48077;48.104;11.702;2023-06-14T06:35:37;8.90;;;6.95;;
62102;SDS011;48077;48.104;11.702;2023-06-14T06:38:00;8.80;;;6.10;;
62102;SDS011;48077;48.104;11.702;2023-06-14T06:40:24;7.53;;;4.55;;
62102;SDS011;48077;48.104;11.702;2023-06-14T06:42:49;8.80;;;6.10;;
62102;SDS011;48077;48.104;11.702;2023-06-14T06:45:13;8.85;;;5.25;;
62102;SDS011;48077;48.104;11.702;2023-06-14T06:47:36;11.77;;;5.30;;
62102;SDS011;48077;48.104;11.702;2023-06-14T06:49:59;6.45;;;4.60;;
62102;SDS011;48077;48.104;11.702;2023-06-14T06:52:23;5.68;;;4.07;;
62102;SDS011;48077;48.104;11.702;2023-06-14T06:54:46;8.05;;;4.82;;
62102;SDS011;48077;48.104;11.702;2023-06-14T06:57:10;13.07;;;5.88;;
62102;SDS011;48077;48.104;11.702;2023-06-14T06:59:34;6.75;;;4.07;;
62102;SDS011;48077;48.104;11.702;2023-06-14T07:01:58;7.25;;;4.28;;
62102;SDS011;48077;48.104;11.702;2023-06-14T07:04:21;8.20;;;4.68;;
62102;SDS011;48077;48.104;11.702;2023-06-14T07:06:45;8.60;;;5.28;;
62102;SDS011;48077;48.104;11.702;2023-06-14T07:09:10;11.18;;;5.22;;
62102;SDS011;48077;48.104;11.702;2023-06-14T07:11:37;9.23;;;4.82;;
62102;SDS011;48077;48.104;11.702;2023-06-14T07:14:00;7.75;;;4.30;;
62102;SDS011;48077;48.104;11.702;2023-06-14T07:16:24;5.85;;;3.97;;
62102;SDS011;48077;48.104;11.702;2023-06-14T07:18:48;4.60;;;3.75;;
62102;SDS011;48077;48.104;11.702;2023-06-14T07:21:12;7.95;;;5.25;;
62102;SDS011;48077;48.104;11.702;2023-06-14T07:23:35;7.63;;;4.07;;
62102;SDS011;48077;48.104;11.702;2023-06-14T07:25:59;8.20;;;5.32;;
62102;SDS011;48077;48.104;11.702;2023-06-14T07:28:22;6.18;;;3.92;;
62102;SDS011;48077;48.104;11.702;2023-06-14T07:30:45;6.97;;;5.25;;
62102;SDS011;48077;48.104;11.702;2023-06-14T07:33:09;9.32;;;4.70;;
62102;SDS011;48077;48.104;11.702;2023-06-14T07:35:33;8.43;;;5.30;;
62102;SDS011;48077;48.104;11.702;2023-06-14T07:37:56;9.63;;;4.85;;
62102;SDS011;48077;48.104;11.702;2023-06-14T07:40:22;7.32;;;4.30;;
62102;SDS011;48077;48.104;11.702;2023-06-14T07:42:45;6.47;;;4.00;;
62102;SDS011;48077;48.104;11.702;2023-06-14T07:45:09;7.13;;;3.88;;
62102;SDS011;48077;48.104;11.702;2023-06-14T07:47:33;8.43;;;4.05;;
62102;SDS011;48077;48.104;11.702;2023-06-14T07:49:56;4.40;;;3.53;;
62102;SDS011;48077;48.104;11.702;2023-06-14T07:52:19;6.68;;;4.30;;
62102;SDS011;48077;48.104;11.702;2023-06-14T07:54:43;7.75;;;4.18;;
62102;SDS011;48077;48.104;11.702;2023-06-14T07:57:06;7.22;;;4.10;;
62102;SDS011;48077;48.104;11.702;2023-06-14T07:59:30;8.70;;;3.45;;
62102;SDS011;48077;48.104;11.702;2023-06-14T08:01:53;5.18;;;3.15;;
62102;SDS011;48077;48.104;11.702;2023-06-14T08:04:17;7.00;;;3.15;;
62102;SDS011;48077;48.104;11.702;2023-06-14T08:06:40;5.40;;;3.13;;
62102;SDS011;48077;48.104;11.702;2023-06-14T08:09:07;9.80;;;4.65;;
62102;SDS011;48077;48.104;11.702;2023-06-14T08:11:30;6.90;;;4.07;;
62102;SDS011;48077;48.104;11.702;2023-06-14T08:13:54;5.85;;;3.60;;
62102;SDS011;48077;48.104;11.702;2023-06-14T08:16:17;8.38;;;3.30;;
62102;SDS011;48077;48.104;11.702;2023-06-14T08:18:40;5.60;;;3.22;;
62102;SDS011;48077;48.104;11.702;2023-06-14T08:21:04;7.50;;;4.20;;
62102;SDS011;48077;48.104;11.702;2023-06-14T08:23:27;4.88;;;3.40;;
62102;SDS011;48077;48.104;11.702;2023-06-14T08:25:51;9.07;;;3.53;;
62102;SDS011;48077;48.104;11.702;2023-06-14T08:28:14;8.23;;;3.80;;
62102;SDS011;48077;48.104;11.702;2023-06-14T08:30:38;8.40;;;3.60;;
62102;SDS011;48077;48.104;11.702;2023-06-14T08:33:01;5.32;;;3.45;;
62102;SDS011;48077;48.104;11.702;2023-06-14T08:35:24;6.03;;;4.13;;
62102;SDS011;48077;48.104;11.702;2023-06-14T08:37:48;6.57;;;3.88;;
62102;SDS011;48077;48.104;11.702;2023-06-14T08:40:19;8.30;;;4.22;;
62102;SDS011;48077;48.104;11.702;2023-06-14T08:42:44;8.90;;;3.55;;
62102;SDS011;48077;48.104;11.702;2023-06-14T08:45:09;7.88;;;3.30;;
62102;SDS011;48077;48.104;11.702;2023-06-14T08:47:33;4.60;;;3.05;;
62102;SDS011;48077;48.104;11.702;2023-06-14T08:49:59;7.03;;;3.80;;
62102;SDS011;48077;48.104;11.702;2023-06-14T08:52:23;6.95;;;3.40;;
62102;SDS011;48077;48.104;11.702;2023-06-14T08:54:53;5.28;;;3.60;;
62102;SDS011;48077;48.104;11.702;2023-06-14T08:57:16;7.38;;;3.63;;
62102;SDS011;48077;48.104;11.702;2023-06-14T08:59:40;7.32;;;3.85;;
62102;SDS011;48077;48.104;11.702;2023-06-14T09:02:16;6.70;;;3.75;;
62102;SDS011;48077;48.104;11.702;2023-06-14T09:04:40;5.55;;;3.08;;
62102;SDS011;48077;48.104;11.702;2023-06-14T09:07:05;7.80;;;4.28;;
62102;SDS011;48077;48.104;11.702;2023-06-14T09:09:29;7.47;;;3.42;;
62102;SDS011;48077;48.104;11.702;2023-06-14T09:11:52;7.85;;;4.40;;
62102;SDS011;48077;48.104;11.702;2023-06-14T09:14:17;6.88;;;3.55;;
62102;SDS011;48077;48.104;11.702;2023-06-14T09:16:41;4.53;;;3.28;;
62102;SDS011;48077;48.104;11.702;2023-06-14T09:19:04;6.25;;;3.70;;
62102;SDS011;48077;48.104;11.702;2023-06-14T09:21:28;6.10;;;3.30;;
62102;SDS011;48077;48.104;11.702;2023-06-14T09:26:20;8.20;;;4.03;;
62102;SDS011;48077;48.104;11.702;2023-06-14T09:28:47;8.43;;;3.25;;
62102;SDS011;48077;48.104;11.702;2023-06-14T09:31:12;9.27;;;4.15;;
62102;SDS011;48077;48.104;11.702;2023-06-14T09:33:36;6.15;;;3.65;;
62102;SDS011;48077;48.104;11.702;2023-06-14T09:35:59;6.35;;;4.07;;
62102;SDS011;48077;48.104;11.702;2023-06-14T09:38:23;6.60;;;3.17;;
62102;SDS011;48077;48.104;11.702;2023-06-14T09:40:49;6.60;;;3.80;;
62102;SDS011;48077;48.104;11.702;2023-06-14T09:43:12;5.28;;;3.10;;
62102;SDS011;48077;48.104;11.702;2023-06-14T09:45:36;5.32;;;3.42;;
62102;SDS011;48077;48.104;11.702;2023-06-14T09:48:02;7.80;;;3.50;;
62102;SDS011;48077;48.104;11.702;2023-06-14T09:50:27;4.93;;;3.25;;
62102;SDS011;48077;48.104;11.702;2023-06-14T09:52:51;8.32;;;4.00;;
62102;SDS011;48077;48.104;11.702;2023-06-14T09:55:18;5.30;;;3.28;;
62102;SDS011;48077;48.104;11.702;2023-06-14T09:57:42;7.78;;;4.68;;
62102;SDS011;48077;48.104;11.702;2023-06-14T10:00:08;8.18;;;4.15;;
62102;SDS011;48077;48.104;11.702;2023-06-14T10:02:36;10.32;;;4.05;;
62102;SDS011;48077;48.104;11.702;2023-06-14T10:05:05;6.78;;;3.97;;
62102;SDS011;48077;48.104;11.702;2023-06-14T10:07:34;7.45;;;4.35;;
62102;SDS011;48077;48.104;11.702;2023-06-14T10:10:01;10.15;;;4.47;;
62102;SDS011;48077;48.104;11.702;2023-06-14T10:12:25;4.15;;;3.53;;
62102;SDS011;48077;48.104;11.702;2023-06-14T10:14:49;6.13;;;3.47;;
62102;SDS011;48077;48.104;11.702;2023-06-14T10:20:06;5.70;;;3.78;;
62102;SDS011;48077;48.104;11.702;2023-06-14T10:22:43;9.57;;;3.75;;
62102;SDS011;48077;48.104;11.702;2023-06-14T10:25:25;6.72;;;3.58;;
62102;SDS011;48077;48.104;11.702;2023-06-14T10:27:50;7.78;;;3.70;;
62102;SDS011;48077;48.104;11.702;2023-06-14T10:30:14;8.50;;;3.92;;
62102;SDS011;48077;48.104;11.702;2023-06-14T10:32:55;11.10;;;3.40;;
62102;SDS011;48077;48.104;11.702;2023-06-14T10:35:30;6.78;;;3.80;;
62102;SDS011;48077;48.104;11.702;2023-06-14T10:37:53;6.38;;;3.75;;
62102;SDS011;48077;48.104;11.702;2023-06-14T10:40:30;5.97;;;4.25;;
62102;SDS011;48077;48.104;11.702;2023-06-14T10:42:57;7.78;;;4.45;;
62102;SDS011;48077;48.104;11.702;2023-06-14T10:45:20;7.60;;;3.85;;
62102;SDS011;48077;48.104;11.702;2023-06-14T10:47:43;7.13;;;3.83;;
62102;SDS011;48077;48.104;11.702;2023-06-14T10:50:12;8.10;;;4.25;;
62102;SDS011;48077;48.104;11.702;2023-06-14T10:52:41;7.95;;;4.47;;
62102;SDS011;48077;48.104;11.702;2023-06-14T10:57:41;4.82;;;3.60;;
62102;SDS011;48077;48.104;11.702;2023-06-14T11:00:08;6.05;;;3.78;;
62102;SDS011;48077;48.104;11.702;2023-06-14T11:05:20;9.57;;;4.30;;
62102;SDS011;48077;48.104;11.702;2023-06-14T11:12:56;5.28;;;3.85;;
62102;SDS011;48077;48.104;11.702;2023-06-14T11:15:20;8.85;;;4.68;;
62102;SDS011;48077;48.104;11.702;2023-06-14T11:17:50;7.47;;;4.13;;
62102;SDS011;48077;48.104;11.702;2023-06-14T11:20:16;5.28;;;4.00;;
62102;SDS011;48077;48.104;11.702;2023-06-14T11:22:43;7.15;;;3.78;;
62102;SDS011;48077;48.104;11.702;2023-06-14T11:25:08;6.05;;;3.97;;
62102;SDS011;48077;48.104;11.702;2023-06-14T11:27:35;5.90;;;3.95;;
62102;SDS011;48077;48.104;11.702;2023-06-14T11:29:59;5.93;;;3.78;;
62102;SDS011;48077;48.104;11.702;2023-06-14T11:32:22;13.95;;;4.70;;
62102;SDS011;48077;48.104;11.702;2023-06-14T11:34:46;7.78;;;4.38;;
62102;SDS011;48077;48.104;11.702;2023-06-14T11:37:09;7.75;;;3.92;;
62102;SDS011;48077;48.104;11.702;2023-06-14T11:39:33;5.30;;;3.40;;
62102;SDS011;48077;48.104;11.702;2023-06-14T11:41:56;7.47;;;4.28;;
62102;SDS011;48077;48.104;11.702;2023-06-14T11:44:24;6.30;;;3.85;;
62102;SDS011;48077;48.104;11.702;2023-06-14T11:46:47;6.40;;;4.50;;
62102;SDS011;48077;48.104;11.702;2023-06-14T11:49:10;7.35;;;4.25;;
62102;SDS011;48077;48.104;11.702;2023-06-14T11:51:34;5.00;;;3.42;;
62102;SDS011;48077;48.104;11.702;2023-06-14T11:53:58;6.10;;;4.07;;
62102;SDS011;48077;48.104;11.702;2023-06-14T11:56:22;7.25;;;4.28;;
62102;SDS011;48077;48.104;11.702;2023-06-14T11:58:45;9.95;;;4.07;;
62102;SDS011;48077;48.104;11.702;2023-06-14T12:01:09;5.95;;;4.03;;
62102;SDS011;48077;48.104;11.702;2023-06-14T12:03:37;6.93;;;3.50;;
62102;SDS011;48077;48.104;11.702;2023-06-14T12:06:11;7.38;;;3.70;;
62102;SDS011;48077;48.104;11.702;2023-06-14T12:08:35;7.30;;;3.58;;
62102;SDS011;48077;48.104;11.702;2023-06-14T12:11:02;6.80;;;4.30;;
62102;SDS011;48077;48.104;11.702;2023-06-14T12:13:26;6.28;;;3.72;;
62102;SDS011;48077;48.104;11.702;2023-06-14T12:15:54;6.30;;;4.00;;
62102;SDS011;48077;48.104;11.702;2023-06-14T12:18:19;7.20;;;4.03;;
62102;SDS011;48077;48.104;11.702;2023-06-14T12:20:42;6.70;;;4.18;;
62102;SDS011;48077;48.104;11.702;2023-06-14T12:23:11;4.97;;;3.47;;
62102;SDS011;48077;48.104;11.702;2023-06-14T12:25:35;5.88;;;3.47;;
62102;SDS011;48077;48.104;11.702;2023-06-14T12:28:03;10.55;;;4.40;;
62102;SDS011;48077;48.104;11.702;2023-06-14T12:30:29;7.65;;;4.50;;
62102;SDS011;48077;48.104;11.702;2023-06-14T12:32:52;7.75;;;4.10;;
62102;SDS011;48077;48.104;11.702;2023-06-14T12:35:15;4.88;;;3.83;;
62102;SDS011;48077;48.104;11.702;2023-06-14T12:37:39;7.32;;;4.18;;
62102;SDS011;48077;48.104;11.702;2023-06-14T12:40:03;6.00;;;3.80;;
62102;SDS011;48077;48.104;11.702;2023-06-14T12:42:28;9.90;;;4.32;;
62102;SDS011;48077;48.104;11.702;2023-06-14T12:44:52;8.30;;;4.03;;
62102;SDS011;48077;48.104;11.702;2023-06-14T12:47:15;10.35;;;4.32;;
62102;SDS011;48077;48.104;11.702;2023-06-14T12:49:38;12.07;;;4.43;;
62102;SDS011;48077;48.104;11.702;2023-06-14T12:52:03;6.65;;;3.90;;
62102;SDS011;48077;48.104;11.702;2023-06-14T12:54:26;4.25;;;3.63;;
62102;SDS011;48077;48.104;11.702;2023-06-14T12:56:49;5.72;;;4.10;;
62102;SDS011;48077;48.104;11.702;2023-06-14T12:59:14;4.93;;;4.05;;
62102;SDS011;48077;48.104;11.702;2023-06-14T13:01:38;10.90;;;4.25;;
62102;SDS011;48077;48.104;11.702;2023-06-14T13:04:02;4.43;;;3.45;;
62102;SDS011;48077;48.104;11.702;2023-06-14T13:06:25;5.72;;;3.63;;
62102;SDS011;48077;48.104;11.702;2023-06-14T13:08:49;6.07;;;4.03;;
62102;SDS011;48077;48.104;11.702;2023-06-14T13:11:13;6.47;;;4.18;;
62102;SDS011;48077;48.104;11.702;2023-06-14T13:13:36;6.47;;;3.75;;
62102;SDS011;48077;48.104;11.702;2023-06-14T13:15:59;5.97;;;4.15;;
62102;SDS011;48077;48.104;11.702;2023-06-14T13:18:23;7.70;;;3.85;;
62102;SDS011;48077;48.104;11.702;2023-06-14T13:20:46;7.85;;;4.07;;
62102;SDS011;48077;48.104;11.702;2023-06-14T13:23:10;5.90;;;3.92;;
62102;SDS011;48077;48.104;11.702;2023-06-14T13:25:36;7.03;;;3.97;;
62102;SDS011;48077;48.104;11.702;2023-06-14T13:28:04;10.13;;;4.47;;
62102;SDS011;48077;48.104;11.702;2023-06-14T13:30:27;4.53;;;3.60;;
62102;SDS011;48077;48.104;11.702;2023-06-14T13:32:51;5.25;;;3.60;;
62102;SDS011;48077;48.104;11.702;2023-06-14T13:35:15;9.70;;;5.00;;
62102;SDS011;48077;48.104;11.702;2023-06-14T13:37:38;5.32;;;4.07;;
62102;SDS011;48077;48.104;11.702;2023-06-14T13:40:01;5.72;;;4.28;;
62102;SDS011;48077;48.104;11.702;2023-06-14T13:42:25;5.78;;;3.75;;
62102;SDS011;48077;48.104;11.702;2023-06-14T13:44:48;6.95;;;4.40;;
62102;SDS011;48077;48.104;11.702;2023-06-14T13:47:14;4.28;;;3.28;;
62102;SDS011;48077;48.104;11.702;2023-06-14T13:49:37;10.98;;;5.45;;
62102;SDS011;48077;48.104;11.702;2023-06-14T13:52:01;6.30;;;3.97;;
62102;SDS011;48077;48.104;11.702;2023-06-14T13:54:24;9.40;;;4.50;;
62102;SDS011;48077;48.104;11.702;2023-06-14T13:56:48;7.90;;;4.25;;
62102;SDS011;48077;48.104;11.702;2023-06-14T13:59:11;6.20;;;4.28;;
62102;SDS011;48077;48.104;11.702;2023-06-14T14:01:35;5.07;;;4.03;;
62102;SDS011;48077;48.104;11.702;2023-06-14T14:03:58;5.10;;;4.10;;
62102;SDS011;48077;48.104;11.702;2023-06-14T14:06:23;6.35;;;4.30;;
62102;SDS011;48077;48.104;11.702;2023-06-14T14:08:46;4.50;;;3.50;;
62102;SDS011;48077;48.104;11.702;2023-06-14T14:11:10;9.45;;;5.25;;
62102;SDS011;48077;48.104;11.702;2023-06-14T14:13:33;8.00;;;3.80;;
62102;SDS011;48077;48.104;11.702;2023-06-14T14:15:59;6.10;;;4.07;;
62102;SDS011;48077;48.104;11.702;2023-06-14T14:18:22;5.30;;;4.00;;
62102;SDS011;48077;48.104;11.702;2023-06-14T14:20:49;8.70;;;4.50;;
62102;SDS011;48077;48.104;11.702;2023-06-14T14:23:12;9.55;;;4.57;;
62102;SDS011;48077;48.104;11.702;2023-06-14T14:25:35;6.57;;;4.13;;
62102;SDS011;48077;48.104;11.702;2023-06-14T14:27:59;5.35;;;4.15;;
62102;SDS011;48077;48.104;11.702;2023-06-14T14:30:22;7.78;;;4.47;;
62102;SDS011;48077;48.104;11.702;2023-06-14T14:32:46;8.05;;;4.53;;